sensor_id;sensor_type;location;lat;lon;timestamp;P1;durP1;ratioP1;P2;durP2;ratioP2
60718;SDS011;46567;51.660;5.824;2023-08-08T00:02:04;5.2;;;2.7;;
60718;SDS011;46567;51.660;5.824;2023-08-08T00:07:04;6.0;;;2.8;;
60718;SDS011;46567;51.660;5.824;2023-08-08T00:12:04;6.4;;;3.0;;
60718;SDS011;46567;51.660;5.824;2023-08-08T00:17:04;5.7;;;3.0;;
60718;SDS011;46567;51.660;5.824;2023-08-08T00:22:04;6.2;;;3.4;;
60718;SDS011;46567;51.660;5.824;2023-08-08T00:27:04;5.1;;;3.2;;
60718;SDS011;46567;51.660;5.824;2023-08-08T00:32:04;3.9;;;3.0;;
60718;SDS011;46567;51.660;5.824;2023-08-08T00:37:04;4.5;;;3.0;;
60718;SDS011;46567;51.660;5.824;2023-08-08T00:42:04;5.1;;;3.1;;
60718;SDS011;46567;51.660;5.824;2023-08-08T00:47:04;4.5;;;2.6;;
60718;SDS011;46567;51.660;5.824;2023-08-08T00:52:04;6.6;;;3.3;;
60718;SDS011;46567;51.660;5.824;2023-08-08T00:57:04;7.0;;;3.5;;
60718;SDS011;46567;51.660;5.824;2023-08-08T01:02:04;4.8;;;3.3;;
60718;SDS011;46567;51.660;5.824;2023-08-08T01:07:20;6.3;;;3.2;;
60718;SDS011;46567;51.660;5.824;2023-08-08T01:12:04;4.2;;;3.0;;
60718;SDS011;46567;51.660;5.824;2023-08-08T01:17:04;4.5;;;3.1;;
60718;SDS011;46567;51.660;5.824;2023-08-08T01:22:04;8.1;;;3.2;;
60718;SDS011;46567;51.660;5.824;2023-08-08T01:27:04;6.3;;;3.4;;
60718;SDS011;46567;51.660;5.824;2023-08-08T01:32:04;7.8;;;3.3;;
60718;SDS011;46567;51.660;5.824;2023-08-08T01:37:10;5.9;;;3.3;;
60718;SDS011;46567;51.660;5.824;2023-08-08T01:42:04;4.4;;;3.1;;
60718;SDS011;46567;51.660;5.824;2023-08-08T01:47:04;4.9;;;3.2;;
60718;SDS011;46567;51.660;5.824;2023-08-08T01:52:04;4.3;;;3.0;;
60718;SDS011;46567;51.660;5.824;2023-08-08T01:57:04;11.5;;;3.8;;
60718;SDS011;46567;51.660;5.824;2023-08-08T02:02:04;4.9;;;2.9;;
60718;SDS011;46567;51.660;5.824;2023-08-08T02:07:04;8.5;;;3.4;;
60718;SDS011;46567;51.660;5.824;2023-08-08T02:12:04;5.3;;;3.2;;
60718;SDS011;46567;51.660;5.824;2023-08-08T02:17:04;8.1;;;3.4;;
60718;SDS011;46567;51.660;5.824;2023-08-08T02:22:04;6.2;;;3.5;;
60718;SDS011;46567;51.660;5.824;2023-08-08T02:27:04;8.7;;;3.5;;
60718;SDS011;46567;51.660;5.824;2023-08-08T02:32:04;5.6;;;3.6;;
60718;SDS011;46567;51.660;5.824;2023-08-08T02:37:04;10.0;;;4.0;;
60718;SDS011;46567;51.660;5.824;2023-08-08T02:42:04;6.9;;;4.0;;
60718;SDS011;46567;51.660;5.824;2023-08-08T02:47:04;7.9;;;4.5;;
60718;SDS011;46567;51.660;5.824;2023-08-08T02:52:04;6.5;;;4.0;;
60718;SDS011;46567;51.660;5.824;2023-08-08T02:57:04;7.1;;;4.0;;
60718;SDS011;46567;51.660;5.824;2023-08-08T03:02:04;10.0;;;4.1;;
60718;SDS011;46567;51.660;5.824;2023-08-08T03:07:04;6.7;;;3.9;;
60718;SDS011;46567;51.660;5.824;2023-08-08T03:12:05;8.2;;;4.2;;
60718;SDS011;46567;51.660;5.824;2023-08-08T03:17:04;10.0;;;4.3;;
60718;SDS011;46567;51.660;5.824;2023-08-08T03:22:04;8.8;;;4.4;;
60718;SDS011;46567;51.660;5.824;2023-08-08T03:27:04;9.4;;;4.3;;
60718;SDS011;46567;51.660;5.824;2023-08-08T03:32:04;8.3;;;4.5;;
60718;SDS011;46567;51.660;5.824;2023-08-08T03:37:04;7.9;;;4.1;;
60718;SDS011;46567;51.660;5.824;2023-08-08T03:42:04;10.3;;;4.5;;
60718;SDS011;46567;51.660;5.824;2023-08-08T03:47:04;8.4;;;4.4;;
60718;SDS011;46567;51.660;5.824;2023-08-08T03:52:04;7.7;;;4.7;;
60718;SDS011;46567;51.660;5.824;2023-08-08T03:57:04;9.0;;;4.4;;
60718;SDS011;46567;51.660;5.824;2023-08-08T04:02:04;11.4;;;5.0;;
60718;SDS011;46567;51.660;5.824;2023-08-08T04:07:04;14.1;;;5.4;;
60718;SDS011;46567;51.660;5.824;2023-08-08T04:12:04;9.6;;;4.7;;
60718;SDS011;46567;51.660;5.824;2023-08-08T04:17:04;10.1;;;5.7;;
60718;SDS011;46567;51.660;5.824;2023-08-08T04:22:04;10.1;;;5.0;;
60718;SDS011;46567;51.660;5.824;2023-08-08T04:27:04;8.0;;;5.2;;
60718;SDS011;46567;51.660;5.824;2023-08-08T04:32:04;14.2;;;5.7;;
60718;SDS011;46567;51.660;5.824;2023-08-08T04:37:04;10.6;;;5.4;;
60718;SDS011;46567;51.660;5.824;2023-08-08T04:42:04;11.3;;;5.5;;
60718;SDS011;46567;51.660;5.824;2023-08-08T04:47:04;12.8;;;5.3;;
60718;SDS011;46567;51.660;5.824;2023-08-08T04:52:04;14.5;;;6.5;;
60718;SDS011;46567;51.660;5.824;2023-08-08T04:57:04;13.4;;;5.7;;
60718;SDS011;46567;51.660;5.824;2023-08-08T05:02:04;10.1;;;5.8;;
60718;SDS011;46567;51.660;5.824;2023-08-08T05:07:04;14.1;;;6.6;;
60718;SDS011;46567;51.660;5.824;2023-08-08T05:12:04;14.5;;;5.9;;
60718;SDS011;46567;51.660;5.824;2023-08-08T05:17:04;17.5;;;5.9;;
60718;SDS011;46567;51.660;5.824;2023-08-08T05:22:04;13.6;;;5.9;;
60718;SDS011;46567;51.660;5.824;2023-08-08T05:27:04;14.1;;;6.1;;
60718;SDS011;46567;51.660;5.824;2023-08-08T05:32:04;13.0;;;6.0;;
60718;SDS011;46567;51.660;5.824;2023-08-08T05:37:04;14.8;;;6.0;;
60718;SDS011;46567;51.660;5.824;2023-08-08T05:42:04;14.5;;;6.4;;
60718;SDS011;46567;51.660;5.824;2023-08-08T05:47:04;12.5;;;5.7;;
60718;SDS011;46567;51.660;5.824;2023-08-08T05:52:04;10.7;;;5.8;;
60718;SDS011;46567;51.660;5.824;2023-08-08T05:57:04;11.6;;;5.9;;
60718;SDS011;46567;51.660;5.824;2023-08-08T06:02:04;13.7;;;6.1;;
60718;SDS011;46567;51.660;5.824;2023-08-08T06:07:04;14.6;;;6.4;;
60718;SDS011;46567;51.660;5.824;2023-08-08T06:12:04;12.5;;;6.0;;
60718;SDS011;46567;51.660;5.824;2023-08-08T06:17:04;10.9;;;5.6;;
60718;SDS011;46567;51.660;5.824;2023-08-08T06:22:04;11.9;;;5.8;;
60718;SDS011;46567;51.660;5.824;2023-08-08T06:27:04;11.0;;;5.2;;
60718;SDS011;46567;51.660;5.824;2023-08-08T06:32:04;12.6;;;5.7;;
60718;SDS011;46567;51.660;5.824;2023-08-08T06:37:04;13.2;;;6.0;;
60718;SDS011;46567;51.660;5.824;2023-08-08T06:42:04;13.9;;;5.9;;
60718;SDS011;46567;51.660;5.824;2023-08-08T06:47:04;13.5;;;6.0;;
60718;SDS011;46567;51.660;5.824;2023-08-08T06:52:04;11.4;;;5.6;;
60718;SDS011;46567;51.660;5.824;2023-08-08T06:57:04;14.5;;;6.0;;
60718;SDS011;46567;51.660;5.824;2023-08-08T07:02:04;11.0;;;5.1;;
60718;SDS011;46567;51.660;5.824;2023-08-08T07:07:04;11.1;;;5.5;;
60718;SDS011;46567;51.660;5.824;2023-08-08T07:12:04;10.4;;;5.3;;
60718;SDS011;46567;51.660;5.824;2023-08-08T07:17:04;10.5;;;5.3;;
60718;SDS011;46567;51.660;5.824;2023-08-08T07:22:04;9.8;;;4.7;;
60718;SDS011;46567;51.660;5.824;2023-08-08T07:27:04;7.7;;;3.7;;
60718;SDS011;46567;51.660;5.824;2023-08-08T07:32:04;8.0;;;4.1;;
60718;SDS011;46567;51.660;5.824;2023-08-08T07:37:05;10.3;;;3.9;;
60718;SDS011;46567;51.660;5.824;2023-08-08T07:42:04;9.9;;;4.3;;
60718;SDS011;46567;51.660;5.824;2023-08-08T07:47:04;10.0;;;4.0;;
60718;SDS011;46567;51.660;5.824;2023-08-08T07:52:04;10.9;;;4.1;;
60718;SDS011;46567;51.660;5.824;2023-08-08T07:57:04;5.0;;;3.6;;
60718;SDS011;46567;51.660;5.824;2023-08-08T08:02:04;8.6;;;4.2;;
60718;SDS011;46567;51.660;5.824;2023-08-08T08:07:04;10.5;;;3.2;;
60718;SDS011;46567;51.660;5.824;2023-08-08T08:12:04;8.6;;;2.7;;
60718;SDS011;46567;51.660;5.824;2023-08-08T08:17:04;8.2;;;2.5;;
60718;SDS011;46567;51.660;5.824;2023-08-08T08:22:04;6.1;;;2.3;;
60718;SDS011;46567;51.660;5.824;2023-08-08T08:27:04;5.3;;;2.0;;
60718;SDS011;46567;51.660;5.824;2023-08-08T08:32:04;6.5;;;1.9;;
60718;SDS011;46567;51.660;5.824;2023-08-08T08:37:04;4.4;;;1.9;;
60718;SDS011;46567;51.660;5.824;2023-08-08T08:42:04;4.1;;;1.4;;
60718;SDS011;46567;51.660;5.824;2023-08-08T08:47:04;3.9;;;1.7;;
60718;SDS011;46567;51.660;5.824;2023-08-08T08:52:04;5.3;;;1.4;;
60718;SDS011;46567;51.660;5.824;2023-08-08T08:57:04;2.6;;;1.5;;
60718;SDS011;46567;51.660;5.824;2023-08-08T09:02:04;3.8;;;1.3;;
60718;SDS011;46567;51.660;5.824;2023-08-08T09:07:05;6.9;;;1.6;;
60718;SDS011;46567;51.660;5.824;2023-08-08T09:12:04;4.6;;;1.3;;
60718;SDS011;46567;51.660;5.824;2023-08-08T09:17:09;3.9;;;1.5;;
60718;SDS011;46567;51.660;5.824;2023-08-08T09:22:04;4.1;;;1.5;;
60718;SDS011;46567;51.660;5.824;2023-08-08T09:27:04;4.4;;;1.6;;
60718;SDS011;46567;51.660;5.824;2023-08-08T09:32:04;4.3;;;1.2;;
60718;SDS011;46567;51.660;5.824;2023-08-08T09:37:05;3.3;;;1.3;;
60718;SDS011;46567;51.660;5.824;2023-08-08T09:42:04;5.1;;;1.8;;
60718;SDS011;46567;51.660;5.824;2023-08-08T09:47:04;3.8;;;1.7;;
60718;SDS011;46567;51.660;5.824;2023-08-08T09:52:05;4.5;;;1.3;;
60718;SDS011;46567;51.660;5.824;2023-08-08T09:57:04;4.1;;;1.4;;
60718;SDS011;46567;51.660;5.824;2023-08-08T10:02:04;3.7;;;1.5;;
60718;SDS011;46567;51.660;5.824;2023-08-08T10:07:04;4.3;;;1.7;;
60718;SDS011;46567;51.660;5.824;2023-08-08T10:12:04;7.4;;;1.5;;
60718;SDS011;46567;51.660;5.824;2023-08-08T10:17:04;3.2;;;1.2;;
60718;SDS011;46567;51.660;5.824;2023-08-08T10:22:04;4.4;;;1.6;;
60718;SDS011;46567;51.660;5.824;2023-08-08T10:27:04;6.3;;;1.5;;
60718;SDS011;46567;51.660;5.824;2023-08-08T10:32:06;4.7;;;1.6;;
60718;SDS011;46567;51.660;5.824;2023-08-08T10:37:04;5.2;;;1.7;;
60718;SDS011;46567;51.660;5.824;2023-08-08T10:42:04;3.4;;;1.4;;
60718;SDS011;46567;51.660;5.824;2023-08-08T10:47:04;1.9;;;1.2;;
60718;SDS011;46567;51.660;5.824;2023-08-08T10:52:04;4.0;;;1.3;;
60718;SDS011;46567;51.660;5.824;2023-08-08T10:57:04;3.2;;;1.3;;
60718;SDS011;46567;51.660;5.824;2023-08-08T11:02:04;5.1;;;1.4;;
60718;SDS011;46567;51.660;5.824;2023-08-08T11:07:04;2.4;;;1.1;;
60718;SDS011;46567;51.660;5.824;2023-08-08T11:12:04;4.4;;;1.3;;
60718;SDS011;46567;51.660;5.824;2023-08-08T11:17:04;2.6;;;1.1;;
60718;SDS011;46567;51.660;5.824;2023-08-08T11:22:08;5.1;;;1.4;;
60718;SDS011;46567;51.660;5.824;2023-08-08T11:27:04;3.3;;;1.2;;
60718;SDS011;46567;51.660;5.824;2023-08-08T11:32:04;4.4;;;1.2;;
60718;SDS011;46567;51.660;5.824;2023-08-08T11:37:04;3.6;;;1.4;;
60718;SDS011;46567;51.660;5.824;2023-08-08T11:42:04;2.8;;;1.3;;
60718;SDS011;46567;51.660;5.824;2023-08-08T11:47:04;4.1;;;1.6;;
60718;SDS011;46567;51.660;5.824;2023-08-08T11:52:04;1.8;;;1.2;;
60718;SDS011;46567;51.660;5.824;2023-08-08T11:57:04;3.0;;;1.5;;
60718;SDS011;46567;51.660;5.824;2023-08-08T12:02:04;4.5;;;1.4;;
60718;SDS011;46567;51.660;5.824;2023-08-08T12:07:04;3.0;;;1.2;;
60718;SDS011;46567;51.660;5.824;2023-08-08T12:12:04;3.2;;;1.5;;
60718;SDS011;46567;51.660;5.824;2023-08-08T12:17:05;2.4;;;1.3;;
60718;SDS011;46567;51.660;5.824;2023-08-08T12:22:04;3.2;;;1.5;;
60718;SDS011;46567;51.660;5.824;2023-08-08T12:27:04;4.1;;;1.4;;
60718;SDS011;46567;51.660;5.824;2023-08-08T12:32:04;4.5;;;1.2;;
60718;SDS011;46567;51.660;5.824;2023-08-08T12:37:04;3.7;;;1.1;;
60718;SDS011;46567;51.660;5.824;2023-08-08T12:42:04;2.7;;;1.2;;
60718;SDS011;46567;51.660;5.824;2023-08-08T12:47:04;2.0;;;0.9;;
60718;SDS011;46567;51.660;5.824;2023-08-08T12:52:04;2.6;;;1.0;;
60718;SDS011;46567;51.660;5.824;2023-08-08T12:57:04;2.4;;;1.2;;
60718;SDS011;46567;51.660;5.824;2023-08-08T13:02:04;2.0;;;0.9;;
60718;SDS011;46567;51.660;5.824;2023-08-08T13:07:04;1.1;;;0.6;;
60718;SDS011;46567;51.660;5.824;2023-08-08T13:12:04;1.5;;;0.8;;
60718;SDS011;46567;51.660;5.824;2023-08-08T13:17:04;1.7;;;0.7;;
60718;SDS011;46567;51.660;5.824;2023-08-08T13:22:04;3.0;;;0.9;;
60718;SDS011;46567;51.660;5.824;2023-08-08T13:27:04;1.5;;;0.7;;
60718;SDS011;46567;51.660;5.824;2023-08-08T13:32:04;2.1;;;0.6;;
60718;SDS011;46567;51.660;5.824;2023-08-08T13:37:04;1.6;;;0.7;;
60718;SDS011;46567;51.660;5.824;2023-08-08T13:42:04;1.1;;;0.7;;
60718;SDS011;46567;51.660;5.824;2023-08-08T13:47:04;1.7;;;0.5;;
60718;SDS011;46567;51.660;5.824;2023-08-08T13:52:04;1.0;;;0.5;;
60718;SDS011;46567;51.660;5.824;2023-08-08T13:57:04;1.6;;;0.8;;
60718;SDS011;46567;51.660;5.824;2023-08-08T14:02:04;2.1;;;0.6;;
60718;SDS011;46567;51.660;5.824;2023-08-08T14:07:04;1.2;;;0.6;;
60718;SDS011;46567;51.660;5.824;2023-08-08T14:12:04;1.0;;;0.6;;
60718;SDS011;46567;51.660;5.824;2023-08-08T14:17:04;1.0;;;0.5;;
60718;SDS011;46567;51.660;5.824;2023-08-08T14:22:04;3.3;;;0.7;;
60718;SDS011;46567;51.660;5.824;2023-08-08T14:27:04;1.4;;;0.7;;
60718;SDS011;46567;51.660;5.824;2023-08-08T14:32:05;2.0;;;0.8;;
60718;SDS011;46567;51.660;5.824;2023-08-08T14:37:04;5.2;;;1.4;;
60718;SDS011;46567;51.660;5.824;2023-08-08T14:42:04;1.7;;;0.7;;
60718;SDS011;46567;51.660;5.824;2023-08-08T14:47:05;1.2;;;0.6;;
60718;SDS011;46567;51.660;5.824;2023-08-08T14:52:04;0.7;;;0.7;;
60718;SDS011;46567;51.660;5.824;2023-08-08T14:57:04;1.4;;;0.7;;
60718;SDS011;46567;51.660;5.824;2023-08-08T15:02:04;1.1;;;0.6;;
60718;SDS011;46567;51.660;5.824;2023-08-08T15:07:04;2.4;;;0.7;;
60718;SDS011;46567;51.660;5.824;2023-08-08T15:12:05;1.4;;;0.8;;
60718;SDS011;46567;51.660;5.824;2023-08-08T15:17:04;2.9;;;1.0;;
60718;SDS011;46567;51.660;5.824;2023-08-08T15:22:04;1.1;;;0.8;;
60718;SDS011;46567;51.660;5.824;2023-08-08T15:27:04;1.5;;;0.8;;
60718;SDS011;46567;51.660;5.824;2023-08-08T15:32:05;2.5;;;1.0;;
60718;SDS011;46567;51.660;5.824;2023-08-08T15:37:04;1.7;;;0.8;;
60718;SDS011;46567;51.660;5.824;2023-08-08T15:42:04;2.4;;;0.9;;
60718;SDS011;46567;51.660;5.824;2023-08-08T15:47:04;1.5;;;0.9;;
60718;SDS011;46567;51.660;5.824;2023-08-08T15:52:04;1.2;;;0.8;;
60718;SDS011;46567;51.660;5.824;2023-08-08T15:57:04;1.5;;;0.8;;
60718;SDS011;46567;51.660;5.824;2023-08-08T16:02:04;3.1;;;0.9;;
60718;SDS011;46567;51.660;5.824;2023-08-08T16:07:04;2.3;;;1.1;;
60718;SDS011;46567;51.660;5.824;2023-08-08T16:12:04;3.2;;;1.0;;
60718;SDS011;46567;51.660;5.824;2023-08-08T16:17:04;1.5;;;1.0;;
60718;SDS011;46567;51.660;5.824;2023-08-08T16:22:04;1.5;;;0.9;;
60718;SDS011;46567;51.660;5.824;2023-08-08T16:27:04;4.8;;;1.1;;
60718;SDS011;46567;51.660;5.824;2023-08-08T16:32:04;1.9;;;0.9;;
60718;SDS011;46567;51.660;5.824;2023-08-08T16:37:04;4.0;;;1.1;;
60718;SDS011;46567;51.660;5.824;2023-08-08T16:42:04;4.4;;;1.0;;
60718;SDS011;46567;51.660;5.824;2023-08-08T16:47:04;2.4;;;1.2;;
60718;SDS011;46567;51.660;5.824;2023-08-08T16:52:04;2.1;;;1.1;;
60718;SDS011;46567;51.660;5.824;2023-08-08T16:57:04;3.0;;;1.2;;
60718;SDS011;46567;51.660;5.824;2023-08-08T17:02:04;2.4;;;1.4;;
60718;SDS011;46567;51.660;5.824;2023-08-08T17:07:04;2.0;;;1.3;;
60718;SDS011;46567;51.660;5.824;2023-08-08T17:12:05;2.3;;;1.3;;
60718;SDS011;46567;51.660;5.824;2023-08-08T17:17:04;3.7;;;1.3;;
60718;SDS011;46567;51.660;5.824;2023-08-08T17:22:04;2.4;;;1.6;;
60718;SDS011;46567;51.660;5.824;2023-08-08T17:27:04;3.8;;;1.8;;
60718;SDS011;46567;51.660;5.824;2023-08-08T17:32:04;2.6;;;1.1;;
60718;SDS011;46567;51.660;5.824;2023-08-08T17:37:04;4.5;;;1.5;;
60718;SDS011;46567;51.660;5.824;2023-08-08T17:42:04;3.4;;;1.5;;
60718;SDS011;46567;51.660;5.824;2023-08-08T17:47:04;3.2;;;1.4;;
60718;SDS011;46567;51.660;5.824;2023-08-08T17:52:04;3.2;;;1.4;;
60718;SDS011;46567;51.660;5.824;2023-08-08T17:57:04;5.4;;;1.8;;
60718;SDS011;46567;51.660;5.824;2023-08-08T18:02:04;3.8;;;1.8;;
60718;SDS011;46567;51.660;5.824;2023-08-08T18:07:04;3.6;;;1.3;;
60718;SDS011;46567;51.660;5.824;2023-08-08T18:12:04;2.1;;;1.3;;
60718;SDS011;46567;51.660;5.824;2023-08-08T18:17:04;2.0;;;1.4;;
60718;SDS011;46567;51.660;5.824;2023-08-08T18:22:04;1.2;;;1.0;;
60718;SDS011;46567;51.660;5.824;2023-08-08T18:27:04;2.4;;;1.1;;
60718;SDS011;46567;51.660;5.824;2023-08-08T18:32:04;1.8;;;1.4;;
60718;SDS011;46567;51.660;5.824;2023-08-08T18:37:04;1.9;;;1.1;;
60718;SDS011;46567;51.660;5.824;2023-08-08T18:42:04;2.8;;;1.4;;
60718;SDS011;46567;51.660;5.824;2023-08-08T18:47:04;2.5;;;1.3;;
60718;SDS011;46567;51.660;5.824;2023-08-08T18:52:05;3.2;;;1.5;;
60718;SDS011;46567;51.660;5.824;2023-08-08T18:57:04;3.3;;;1.9;;
60718;SDS011;46567;51.660;5.824;2023-08-08T19:02:04;3.9;;;2.0;;
60718;SDS011;46567;51.660;5.824;2023-08-08T19:07:04;2.9;;;1.9;;
60718;SDS011;46567;51.660;5.824;2023-08-08T19:12:05;3.3;;;2.1;;
60718;SDS011;46567;51.660;5.824;2023-08-08T19:17:04;4.2;;;2.7;;
60718;SDS011;46567;51.660;5.824;2023-08-08T19:22:04;5.6;;;2.6;;
60718;SDS011;46567;51.660;5.824;2023-08-08T19:27:04;4.7;;;2.9;;
60718;SDS011;46567;51.660;5.824;2023-08-08T19:32:04;4.0;;;2.8;;
60718;SDS011;46567;51.660;5.824;2023-08-08T19:37:04;3.9;;;2.6;;
60718;SDS011;46567;51.660;5.824;2023-08-08T19:42:04;4.8;;;2.7;;
60718;SDS011;46567;51.660;5.824;2023-08-08T19:47:04;4.3;;;2.8;;
60718;SDS011;46567;51.660;5.824;2023-08-08T19:52:04;3.4;;;2.5;;
60718;SDS011;46567;51.660;5.824;2023-08-08T19:57:04;3.3;;;2.3;;
60718;SDS011;46567;51.660;5.824;2023-08-08T20:02:04;3.2;;;2.5;;
60718;SDS011;46567;51.660;5.824;2023-08-08T20:07:04;4.0;;;2.5;;
60718;SDS011;46567;51.660;5.824;2023-08-08T20:12:04;3.2;;;2.2;;
60718;SDS011;46567;51.660;5.824;2023-08-08T20:17:04;2.8;;;2.3;;
60718;SDS011;46567;51.660;5.824;2023-08-08T20:22:04;3.5;;;2.5;;
60718;SDS011;46567;51.660;5.824;2023-08-08T20:27:04;3.4;;;2.7;;
60718;SDS011;46567;51.660;5.824;2023-08-08T20:32:04;3.7;;;2.4;;
60718;SDS011;46567;51.660;5.824;2023-08-08T20:37:04;3.2;;;2.4;;
60718;SDS011;46567;51.660;5.824;2023-08-08T20:42:04;2.3;;;1.9;;
60718;SDS011;46567;51.660;5.824;2023-08-08T20:47:04;2.2;;;2.0;;
60718;SDS011;46567;51.660;5.824;2023-08-08T20:52:04;2.0;;;1.8;;
60718;SDS011;46567;51.660;5.824;2023-08-08T20:57:04;2.7;;;2.1;;
60718;SDS011;46567;51.660;5.824;2023-08-08T21:02:04;2.0;;;1.8;;
60718;SDS011;46567;51.660;5.824;2023-08-08T21:07:04;2.3;;;2.0;;
60718;SDS011;46567;51.660;5.824;2023-08-08T21:12:04;2.3;;;2.0;;
60718;SDS011;46567;51.660;5.824;2023-08-08T21:17:04;1.9;;;1.8;;
60718;SDS011;46567;51.660;5.824;2023-08-08T21:22:04;2.1;;;2.0;;
60718;SDS011;46567;51.660;5.824;2023-08-08T21:27:04;2.3;;;2.1;;
60718;SDS011;46567;51.660;5.824;2023-08-08T21:37:04;2.2;;;2.0;;
60718;SDS011;46567;51.660;5.824;2023-08-08T21:42:05;2.0;;;1.9;;
60718;SDS011;46567;51.660;5.824;2023-08-08T21:52:04;1.9;;;1.8;;
60718;SDS011;46567;51.660;5.824;2023-08-08T21:57:04;2.3;;;2.1;;
60718;SDS011;46567;51.660;5.824;2023-08-08T22:02:04;1.9;;;1.8;;
60718;SDS011;46567;51.660;5.824;2023-08-08T22:07:04;1.8;;;1.7;;
60718;SDS011;46567;51.660;5.824;2023-08-08T22:12:05;1.5;;;1.4;;
60718;SDS011;46567;51.660;5.824;2023-08-08T22:17:04;1.1;;;1.0;;
60718;SDS011;46567;51.660;5.824;2023-08-08T22:22:04;1.2;;;0.9;;
60718;SDS011;46567;51.660;5.824;2023-08-08T22:27:04;2.1;;;1.0;;
60718;SDS011;46567;51.660;5.824;2023-08-08T22:32:04;1.4;;;1.0;;
60718;SDS011;46567;51.660;5.824;2023-08-08T22:37:04;1.0;;;0.9;;
60718;SDS011;46567;51.660;5.824;2023-08-08T22:42:04;1.5;;;0.9;;
60718;SDS011;46567;51.660;5.824;2023-08-08T22:47:04;1.2;;;0.9;;
60718;SDS011;46567;51.660;5.824;2023-08-08T22:52:04;1.5;;;1.0;;
60718;SDS011;46567;51.660;5.824;2023-08-08T22:57:04;2.6;;;1.2;;
60718;SDS011;46567;51.660;5.824;2023-08-08T23:02:04;1.1;;;0.9;;
60718;SDS011;46567;51.660;5.824;2023-08-08T23:07:04;1.9;;;1.0;;
60718;SDS011;46567;51.660;5.824;2023-08-08T23:12:05;1.9;;;1.3;;
60718;SDS011;46567;51.660;5.824;2023-08-08T23:17:04;1.2;;;1.1;;
60718;SDS011;46567;51.660;5.824;2023-08-08T23:22:04;2.1;;;1.4;;
60718;SDS011;46567;51.660;5.824;2023-08-08T23:27:04;2.3;;;1.4;;
60718;SDS011;46567;51.660;5.824;2023-08-08T23:32:04;3.8;;;1.7;;
60718;SDS011;46567;51.660;5.824;2023-08-08T23:37:05;1.4;;;1.3;;
60718;SDS011;46567;51.660;5.824;2023-08-08T23:42:04;2.4;;;1.6;;
60718;SDS011;46567;51.660;5.824;2023-08-08T23:47:04;2.1;;;1.3;;
60718;SDS011;46567;51.660;5.824;2023-08-08T23:52:05;2.6;;;1.6;;
60718;SDS011;46567;51.660;5.824;2023-08-08T23:57:04;2.4;;;1.5;;
